createdAt,value
2023-02-16T00:00:22.693Z,72.40
2023-02-16T00:02:49.438Z,72.40
2023-02-16T00:05:25.004Z,72.40
2023-02-16T00:07:53.355Z,72.40
2023-02-16T00:10:20.200Z,72.40
2023-02-16T00:13:05.595Z,72.50
2023-02-16T00:15:32.495Z,72.60
2023-02-16T00:18:02.846Z,72.60
2023-02-16T00:20:32.445Z,72.60
2023-02-16T00:22:59.238Z,72.70
2023-02-16T00:25:26.005Z,72.70
2023-02-16T00:27:53.119Z,72.70
2023-02-16T00:30:21.898Z,72.70
2023-02-16T00:32:50.642Z,72.80
2023-02-16T00:35:19.228Z,72.80
2023-02-16T00:37:47.267Z,72.90
2023-02-16T00:40:16.230Z,72.80
2023-02-16T00:42:45.529Z,72.90
2023-02-16T00:45:19.976Z,72.90
2023-02-16T00:47:50.688Z,73.10
2023-02-16T00:50:24.521Z,73.00
2023-02-16T00:52:52.024Z,73.00
2023-02-16T00:55:28.453Z,73.00
2023-02-16T00:58:27.876Z,73.10
2023-02-16T01:00:58.775Z,73.00
2023-02-16T01:03:28.330Z,73.10
2023-02-16T01:06:15.302Z,73.10
2023-02-16T01:09:01.068Z,73.10
2023-02-16T01:11:28.691Z,73.10
2023-02-16T01:13:57.006Z,73.20
2023-02-16T01:16:26.351Z,73.10
2023-02-16T01:18:54.265Z,73.10
2023-02-16T01:21:22.073Z,73.10
2023-02-16T01:23:48.975Z,73.20
2023-02-16T01:26:18.589Z,73.20
2023-02-16T01:28:46.164Z,73.20
2023-02-16T01:31:14.524Z,73.30
2023-02-16T01:33:42.695Z,73.30
2023-02-16T01:36:36.480Z,73.30
2023-02-16T01:39:04.665Z,73.20
2023-02-16T01:42:08.794Z,73.30
2023-02-16T01:44:38.609Z,73.30
2023-02-16T01:47:30.058Z,73.30
2023-02-16T01:49:56.900Z,73.40
2023-02-16T01:52:42.845Z,73.30
2023-02-16T01:55:22.349Z,73.40
2023-02-16T01:58:07.140Z,73.40
2023-02-16T02:00:54.885Z,73.40
2023-02-16T02:03:46.719Z,73.50
2023-02-16T02:06:21.113Z,73.50
2023-02-16T02:09:29.480Z,73.50
2023-02-16T02:12:28.849Z,73.50
2023-02-16T02:14:56.412Z,73.60
2023-02-16T02:17:24.500Z,73.60
2023-02-16T02:20:14.780Z,73.60
2023-02-16T02:23:34.086Z,73.70
2023-02-16T02:26:40.125Z,73.70
2023-02-16T02:29:25.425Z,73.70
2023-02-16T02:32:11.512Z,73.60
2023-02-16T02:34:51.911Z,73.60
2023-02-16T02:37:27.113Z,73.70
2023-02-16T02:39:59.637Z,73.90
2023-02-16T02:42:37.082Z,73.90
2023-02-16T02:45:21.559Z,73.90
2023-02-16T02:47:48.736Z,73.90
2023-02-16T02:50:37.108Z,73.80
2023-02-16T02:53:14.109Z,73.90
2023-02-16T02:56:04.157Z,73.90
2023-02-16T02:58:54.048Z,73.90
2023-02-16T03:01:22.219Z,74.10
2023-02-16T03:03:55.705Z,74.00
2023-02-16T03:06:36.424Z,74.00
2023-02-16T03:09:14.168Z,73.90
2023-02-16T03:12:01.408Z,73.90
2023-02-16T03:14:37.845Z,73.90
2023-02-16T03:17:29.357Z,74.00
2023-02-16T03:20:16.792Z,74.80
2023-02-16T03:23:02.894Z,74.00
2023-02-16T03:25:51.518Z,74.00
2023-02-16T03:28:40.648Z,74.10
2023-02-16T03:31:10.719Z,74.00
2023-02-16T03:33:37.880Z,74.10
2023-02-16T03:36:05.570Z,74.10
2023-02-16T03:38:32.823Z,74.30
2023-02-16T03:40:59.943Z,74.20
2023-02-16T03:43:28.148Z,74.30
2023-02-16T03:45:55.325Z,74.30
2023-02-16T03:48:22.315Z,74.40
2023-02-16T03:50:49.090Z,74.50
2023-02-16T03:53:17.962Z,74.50
2023-02-16T03:55:49.278Z,74.60
2023-02-16T03:58:24.336Z,74.60
2023-02-16T04:00:51.977Z,74.60
2023-02-16T04:03:18.965Z,74.60
2023-02-16T04:05:45.847Z,74.70
2023-02-16T04:08:12.672Z,74.70
2023-02-16T04:10:39.558Z,74.70
2023-02-16T04:13:06.424Z,74.70
2023-02-16T04:15:33.714Z,74.80
2023-02-16T04:18:00.476Z,74.70
2023-02-16T04:20:33.620Z,74.90
2023-02-16T04:23:00.805Z,74.80
2023-02-16T04:25:27.813Z,74.80
2023-02-16T04:27:55.078Z,74.80
2023-02-16T04:30:25.371Z,74.90
2023-02-16T04:32:52.762Z,74.90
2023-02-16T04:35:19.797Z,74.90
2023-02-16T04:37:46.870Z,74.90
2023-02-16T04:40:16.395Z,74.90
2023-02-16T04:42:45.515Z,74.90
2023-02-16T04:45:16.010Z,74.90
2023-02-16T04:47:52.922Z,74.90
2023-02-16T04:50:19.983Z,74.90
2023-02-16T04:52:55.692Z,75.00
2023-02-16T04:55:28.522Z,75.00
2023-02-16T04:57:55.237Z,75.00
2023-02-16T05:00:22.469Z,75.00
2023-02-16T05:02:49.199Z,75.00
2023-02-16T05:05:16.043Z,75.00
2023-02-16T05:07:45.187Z,75.10
2023-02-16T05:10:11.992Z,75.10
2023-02-16T05:12:57.247Z,75.10
2023-02-16T05:15:24.586Z,75.10
2023-02-16T05:17:51.602Z,75.10
2023-02-16T05:20:18.676Z,75.10
2023-02-16T05:22:46.380Z,75.10
2023-02-16T05:25:13.347Z,75.10
2023-02-16T05:27:40.104Z,75.20
2023-02-16T05:30:07.257Z,75.20
2023-02-16T05:32:35.973Z,75.20
2023-02-16T05:35:02.850Z,75.30
2023-02-16T05:37:32.328Z,75.20
2023-02-16T05:39:59.124Z,75.30
2023-02-16T05:42:25.880Z,75.30
2023-02-16T05:44:52.629Z,75.30
2023-02-16T05:47:19.421Z,75.30
2023-02-16T05:49:46.237Z,75.30
2023-02-16T05:52:15.947Z,75.30
2023-02-16T05:54:45.296Z,75.30
2023-02-16T05:57:12.068Z,75.40
2023-02-16T05:59:38.989Z,75.40
2023-02-16T06:02:06.024Z,75.50
2023-02-16T06:04:32.860Z,75.40
2023-02-16T06:06:59.576Z,75.40
2023-02-16T06:09:31.333Z,75.40
2023-02-16T06:11:58.441Z,75.40
2023-02-16T06:14:25.359Z,75.40
2023-02-16T06:16:52.089Z,75.50
2023-02-16T06:19:22.621Z,75.50
2023-02-16T06:21:49.406Z,75.50
2023-02-16T06:24:16.418Z,75.50
2023-02-16T06:26:43.327Z,75.60
2023-02-16T06:29:10.586Z,76.50
2023-02-16T06:31:37.586Z,75.60
2023-02-16T06:34:05.274Z,75.70
2023-02-16T06:36:32.883Z,75.70
2023-02-16T06:39:01.973Z,75.70
2023-02-16T06:41:32.044Z,75.70
2023-02-16T06:44:04.762Z,75.70
2023-02-16T06:46:31.658Z,76.50
2023-02-16T06:48:58.881Z,75.70
2023-02-16T06:51:26.460Z,75.70
2023-02-16T06:53:56.340Z,75.70
2023-02-16T06:56:25.899Z,75.70
2023-02-16T06:58:52.782Z,76.60
2023-02-16T07:01:23.197Z,75.90
2023-02-16T07:03:50.957Z,75.90
2023-02-16T07:06:18.631Z,76.00
2023-02-16T07:08:45.823Z,75.90
2023-02-16T07:11:13.354Z,76.00
2023-02-16T07:13:40.424Z,76.00
2023-02-16T07:16:07.999Z,76.00
2023-02-16T07:18:35.139Z,76.00
2023-02-16T07:21:02.702Z,76.00
2023-02-16T07:23:30.140Z,76.10
2023-02-16T07:25:56.926Z,76.00
2023-02-16T07:28:23.785Z,76.20
2023-02-16T07:30:51.078Z,76.20
2023-02-16T07:33:21.163Z,76.20
2023-02-16T07:35:48.223Z,76.30
2023-02-16T07:38:15.039Z,76.20
2023-02-16T07:40:42.343Z,76.20
2023-02-16T07:43:09.134Z,76.30
2023-02-16T07:45:36.162Z,76.20
2023-02-16T07:48:03.520Z,76.10
2023-02-16T07:50:33.006Z,76.20
2023-02-16T07:53:02.871Z,76.30
2023-02-16T07:55:30.581Z,76.30
2023-02-16T07:57:57.383Z,76.20
2023-02-16T08:00:31.786Z,76.30
2023-02-16T08:02:58.633Z,76.30
2023-02-16T08:05:25.518Z,76.20
2023-02-16T08:07:52.356Z,76.30
2023-02-16T08:10:19.341Z,76.20
2023-02-16T08:12:46.250Z,76.20
2023-02-16T08:15:13.066Z,76.20
2023-02-16T08:17:40.120Z,76.20
2023-02-16T08:20:08.666Z,76.20
2023-02-16T08:22:36.029Z,76.30
2023-02-16T08:25:03.146Z,76.30
2023-02-16T08:27:30.451Z,76.20
2023-02-16T08:29:57.283Z,76.40
2023-02-16T08:32:24.188Z,76.30
2023-02-16T08:34:54.264Z,76.30
2023-02-16T08:37:21.088Z,76.30
2023-02-16T08:39:49.236Z,76.30
2023-02-16T08:42:16.236Z,76.30
2023-02-16T08:44:43.362Z,77.20
2023-02-16T08:47:11.037Z,76.30
2023-02-16T08:49:39.339Z,76.30
2023-02-16T08:52:06.627Z,76.30
2023-02-16T08:54:36.621Z,76.20
2023-02-16T08:57:03.548Z,76.20
2023-02-16T08:59:30.645Z,76.20
2023-02-16T09:01:59.204Z,76.20
2023-02-16T09:04:28.963Z,76.30
2023-02-16T09:06:58.046Z,76.30
2023-02-16T09:09:30.486Z,76.20
2023-02-16T09:11:58.153Z,76.20
2023-02-16T09:14:25.456Z,76.30
2023-02-16T09:16:52.957Z,76.70
2023-02-16T09:19:21.084Z,76.20
2023-02-16T09:21:50.994Z,76.30
2023-02-16T09:24:18.413Z,76.30
2023-02-16T09:26:45.355Z,76.20
2023-02-16T09:29:13.930Z,76.30
2023-02-16T09:31:41.467Z,76.30
2023-02-16T09:34:20.439Z,76.30
2023-02-16T09:36:47.844Z,76.40
2023-02-16T09:39:16.949Z,76.50
2023-02-16T09:41:43.685Z,76.60
2023-02-16T09:44:30.543Z,76.60
2023-02-16T09:47:01.394Z,76.80
2023-02-16T09:49:39.205Z,76.80
2023-02-16T09:52:08.774Z,77.00
2023-02-16T09:54:55.417Z,77.10
2023-02-16T09:57:36.986Z,77.20
2023-02-16T10:00:36.208Z,77.30
2023-02-16T10:03:24.425Z,77.20
2023-02-16T10:05:55.395Z,77.20
2023-02-16T10:08:30.098Z,77.30
2023-02-16T10:11:51.877Z,77.50
2023-02-16T10:14:41.681Z,77.50
2023-02-16T10:17:28.489Z,77.60
2023-02-16T10:20:13.281Z,77.60
2023-02-16T10:22:58.016Z,77.60
2023-02-16T10:25:37.656Z,77.80
2023-02-16T10:28:26.410Z,77.80
2023-02-16T10:31:10.713Z,77.90
2023-02-16T10:33:54.725Z,77.90
2023-02-16T10:36:49.926Z,78.00
2023-02-16T10:39:40.699Z,78.10
2023-02-16T10:42:25.068Z,78.20
2023-02-16T10:45:07.918Z,78.30
2023-02-16T10:47:40.930Z,78.40
2023-02-16T10:50:33.036Z,78.40
2023-02-16T10:53:06.788Z,78.60
2023-02-16T10:55:33.686Z,78.50
2023-02-16T10:58:02.095Z,79.40
2023-02-16T11:01:15.186Z,78.60
2023-02-16T11:03:51.329Z,79.50
2023-02-16T11:06:22.986Z,78.80
2023-02-16T11:08:54.345Z,78.80
2023-02-16T11:11:23.034Z,78.90
2023-02-16T11:13:57.325Z,79.10
2023-02-16T11:16:24.949Z,79.10
2023-02-16T11:19:07.780Z,79.10
2023-02-16T11:21:48.171Z,79.30
2023-02-16T11:24:44.150Z,79.40
2023-02-16T11:27:13.802Z,79.10
2023-02-16T11:29:42.290Z,79.40
2023-02-16T11:32:12.046Z,79.40
2023-02-16T11:34:49.607Z,79.50
2023-02-16T11:37:28.739Z,79.50
2023-02-16T11:40:05.268Z,79.60
2023-02-16T11:42:48.491Z,79.50
2023-02-16T11:45:41.464Z,79.60
2023-02-16T11:48:14.042Z,79.50
2023-02-16T11:51:03.085Z,79.70
2023-02-16T11:53:33.653Z,79.70
2023-02-16T11:56:12.999Z,80.00
2023-02-16T11:58:43.291Z,79.90
2023-02-16T12:01:28.920Z,79.90
2023-02-16T12:04:17.994Z,80.00
2023-02-16T12:06:47.583Z,78.80
2023-02-16T12:09:59.110Z,78.80
2023-02-16T12:12:59.800Z,78.90
2023-02-16T12:15:32.240Z,78.80
2023-02-16T12:18:29.186Z,79.00
2023-02-16T12:21:02.821Z,78.90
2023-02-16T12:23:35.567Z,78.80
2023-02-16T12:26:07.870Z,78.80
2023-02-16T12:28:52.531Z,78.90
2023-02-16T12:32:07.391Z,79.00
2023-02-16T12:34:53.718Z,79.00
2023-02-16T12:37:44.354Z,79.00
2023-02-16T12:40:28.775Z,79.10
2023-02-16T12:43:05.998Z,79.30
2023-02-16T12:45:37.921Z,79.10
2023-02-16T12:48:19.690Z,79.00
2023-02-16T12:50:48.559Z,79.00
2023-02-16T12:53:27.594Z,79.00
2023-02-16T12:56:02.389Z,79.00
2023-02-16T12:58:37.638Z,78.70
2023-02-16T13:01:17.239Z,78.50
2023-02-16T13:04:21.965Z,78.40
2023-02-16T13:06:58.579Z,78.40
2023-02-16T13:09:53.584Z,78.60
2023-02-16T13:12:49.641Z,78.80
2023-02-16T13:15:41.876Z,78.60
2023-02-16T13:18:30.908Z,78.20
2023-02-16T13:21:08.455Z,77.80
2023-02-16T13:23:48.127Z,77.60
2023-02-16T13:26:21.076Z,77.60
2023-02-16T13:29:27.594Z,77.60
2023-02-16T13:32:23.837Z,77.30
2023-02-16T13:35:34.225Z,77.30
2023-02-16T13:38:27.058Z,77.20
2023-02-16T13:41:02.684Z,77.10
2023-02-16T13:43:41.671Z,77.20
2023-02-16T13:46:19.807Z,77.20
2023-02-16T13:48:53.574Z,77.10
2023-02-16T13:51:23.661Z,77.00
2023-02-16T13:53:55.679Z,76.70
2023-02-16T13:56:36.190Z,76.70
2023-02-16T13:59:18.544Z,76.80
2023-02-16T14:01:54.258Z,76.80
2023-02-16T14:04:24.753Z,76.80
2023-02-16T14:07:03.793Z,76.30
2023-02-16T14:09:35.991Z,76.20
2023-02-16T14:12:14.346Z,76.20
2023-02-16T14:14:56.454Z,76.00
2023-02-16T14:17:29.118Z,76.10
2023-02-16T14:19:58.112Z,76.30
2023-02-16T14:22:45.984Z,75.80
2023-02-16T14:25:24.851Z,75.80
2023-02-16T14:27:57.844Z,76.00
2023-02-16T14:30:42.854Z,76.10
2023-02-16T14:33:12.481Z,76.10
2023-02-16T14:35:45.578Z,76.00
2023-02-16T14:38:21.219Z,76.00
2023-02-16T14:40:56.287Z,76.20
2023-02-16T14:43:39.752Z,76.10
2023-02-16T14:46:34.511Z,76.20
2023-02-16T14:49:26.050Z,76.10
2023-02-16T14:52:27.100Z,76.00
2023-02-16T14:55:09.518Z,76.20
2023-02-16T14:58:03.601Z,76.20
2023-02-16T15:00:48.532Z,76.30
2023-02-16T15:03:23.246Z,76.00
2023-02-16T15:06:06.260Z,76.00
2023-02-16T15:08:48.598Z,75.80
2023-02-16T15:11:16.861Z,75.70
2023-02-16T15:13:44.883Z,75.70
2023-02-16T15:16:15.768Z,75.70
2023-02-16T15:18:52.732Z,75.70
2023-02-16T15:21:28.726Z,75.70
2023-02-16T15:24:02.345Z,75.70
2023-02-16T15:26:36.405Z,75.70
2023-02-16T15:29:18.605Z,75.70
2023-02-16T15:31:45.599Z,75.60
2023-02-16T15:34:26.265Z,75.60
2023-02-16T15:36:53.193Z,75.20
2023-02-16T15:39:41.335Z,74.80
2023-02-16T15:42:22.265Z,74.80
2023-02-16T15:44:49.231Z,75.10
2023-02-16T15:47:21.652Z,74.90
2023-02-16T15:49:48.954Z,74.90
2023-02-16T15:52:19.973Z,75.00
2023-02-16T15:54:48.364Z,75.10
2023-02-16T15:57:27.578Z,75.30
2023-02-16T15:59:58.670Z,75.40
2023-02-16T16:02:40.484Z,75.70
2023-02-16T16:05:09.760Z,75.80
2023-02-16T16:07:41.592Z,76.00
2023-02-16T16:10:20.649Z,76.10
2023-02-16T16:12:49.438Z,76.20
2023-02-16T16:15:22.918Z,76.30
2023-02-16T16:17:52.124Z,77.20
2023-02-16T16:20:41.710Z,76.40
2023-02-16T16:23:18.802Z,76.40
2023-02-16T16:25:48.217Z,76.80
2023-02-16T16:28:27.200Z,77.00
2023-02-16T16:31:33.072Z,77.20
2023-02-16T16:34:09.818Z,77.20
2023-02-16T16:36:57.003Z,77.80
2023-02-16T16:39:29.151Z,78.00
2023-02-16T16:42:21.722Z,78.30
2023-02-16T16:45:02.650Z,78.30
2023-02-16T16:47:30.959Z,78.60
2023-02-16T16:50:14.469Z,78.80
2023-02-16T16:52:46.307Z,79.20
2023-02-16T16:55:18.909Z,79.20
2023-02-16T16:57:46.723Z,79.50
2023-02-16T17:00:14.813Z,79.70
2023-02-16T17:02:41.651Z,79.70
2023-02-16T17:05:08.509Z,79.90
2023-02-16T17:07:35.411Z,80.10
2023-02-16T17:10:02.639Z,80.20
2023-02-16T17:12:30.813Z,80.30
2023-02-16T17:14:57.652Z,80.50
2023-02-16T17:17:24.519Z,80.50
2023-02-16T17:19:51.323Z,80.60
2023-02-16T17:22:20.362Z,80.70
2023-02-16T17:24:47.580Z,80.90
2023-02-16T17:27:14.399Z,80.90
2023-02-16T17:29:43.142Z,81.10
2023-02-16T17:32:10.128Z,81.20
2023-02-16T17:34:36.976Z,81.10
2023-02-16T17:37:07.459Z,81.30
2023-02-16T17:39:35.407Z,81.50
2023-02-16T17:42:02.483Z,81.50
2023-02-16T17:44:29.318Z,81.60
2023-02-16T17:46:56.234Z,81.70
2023-02-16T17:49:26.008Z,81.70
2023-02-16T17:51:53.373Z,81.80
2023-02-16T17:54:20.192Z,81.90
2023-02-16T17:56:47.116Z,81.90
2023-02-16T17:59:17.568Z,82.20
2023-02-16T18:01:45.139Z,82.10
2023-02-16T18:04:11.878Z,82.20
2023-02-16T18:06:38.673Z,82.10
2023-02-16T18:09:05.558Z,82.10
2023-02-16T18:11:32.283Z,82.40
2023-02-16T18:13:59.022Z,82.40
2023-02-16T18:16:27.719Z,82.50
2023-02-16T18:18:57.193Z,82.50
2023-02-16T18:21:24.484Z,82.40
2023-02-16T18:23:51.429Z,82.70
2023-02-16T18:26:18.478Z,82.80
2023-02-16T18:28:45.462Z,82.80
2023-02-16T18:31:13.090Z,82.80
2023-02-16T18:33:40.228Z,82.90
2023-02-16T18:36:07.724Z,82.80
2023-02-16T18:38:34.702Z,83.00
2023-02-16T18:41:01.632Z,83.20
2023-02-16T18:43:28.374Z,83.10
2023-02-16T18:45:55.200Z,83.30
2023-02-16T18:48:22.136Z,83.40
2023-02-16T18:50:49.185Z,83.40
2023-02-16T18:53:15.908Z,83.60
2023-02-16T18:55:42.858Z,83.70
2023-02-16T18:58:14.040Z,83.80
2023-02-16T19:00:41.370Z,83.90
2023-02-16T19:03:08.855Z,84.00
2023-02-16T19:05:35.881Z,84.10
2023-02-16T19:08:02.669Z,84.20
2023-02-16T19:10:30.018Z,84.40
2023-02-16T19:12:56.837Z,84.20
2023-02-16T19:15:23.844Z,84.40
2023-02-16T19:17:51.244Z,84.50
2023-02-16T19:20:18.669Z,84.50
2023-02-16T19:22:49.108Z,84.60
2023-02-16T19:25:19.431Z,84.80
2023-02-16T19:27:46.447Z,84.90
2023-02-16T19:30:13.470Z,84.90
2023-02-16T19:32:41.511Z,85.10
2023-02-16T19:35:09.404Z,85.20
2023-02-16T19:37:36.336Z,85.20
2023-02-16T19:40:06.934Z,85.30
2023-02-16T19:42:33.670Z,85.40
2023-02-16T19:45:00.476Z,85.50
2023-02-16T19:47:27.316Z,85.60
2023-02-16T19:49:54.134Z,85.60
2023-02-16T19:52:20.925Z,85.70
2023-02-16T19:54:47.756Z,85.80
2023-02-16T19:57:14.538Z,85.90
2023-02-16T19:59:41.428Z,86.00
2023-02-16T20:02:14.746Z,86.20
2023-02-16T20:04:45.100Z,86.40
2023-02-16T20:07:12.127Z,86.30
2023-02-16T20:09:39.356Z,86.30
2023-02-16T20:12:07.110Z,86.50
2023-02-16T20:14:33.947Z,86.50
2023-02-16T20:17:00.686Z,86.60
2023-02-16T20:19:27.533Z,86.60
2023-02-16T20:21:54.445Z,86.90
2023-02-16T20:24:21.323Z,87.00
2023-02-16T20:26:52.513Z,87.00
2023-02-16T20:29:20.893Z,87.00
2023-02-16T20:31:52.630Z,87.10
2023-02-16T20:34:19.870Z,87.20
2023-02-16T20:36:46.648Z,87.30
2023-02-16T20:39:13.561Z,87.30
2023-02-16T20:41:41.394Z,87.50
2023-02-16T20:44:08.957Z,87.50
2023-02-16T20:46:36.463Z,87.60
2023-02-16T20:49:04.600Z,87.70
2023-02-16T20:51:31.899Z,87.80
2023-02-16T20:54:00.322Z,87.90
2023-02-16T20:56:30.016Z,87.90
2023-02-16T20:58:57.959Z,88.00
2023-02-16T21:01:30.997Z,88.00
2023-02-16T21:03:59.152Z,88.10
2023-02-16T21:06:26.824Z,88.20
2023-02-16T21:08:53.873Z,88.20
2023-02-16T21:11:23.833Z,88.40
2023-02-16T21:13:50.840Z,88.40
2023-02-16T21:16:17.884Z,88.50
2023-02-16T21:18:44.848Z,88.50
2023-02-16T21:21:15.567Z,88.50
2023-02-16T21:23:48.238Z,88.60
2023-02-16T21:26:16.978Z,88.70
2023-02-16T21:28:43.782Z,89.60
2023-02-16T21:31:18.856Z,88.90
2023-02-16T21:33:46.024Z,88.90
2023-02-16T21:36:15.767Z,88.90
2023-02-16T21:38:43.522Z,89.10
2023-02-16T21:41:26.197Z,89.00
2023-02-16T21:44:14.197Z,89.20
2023-02-16T21:46:43.612Z,89.20
2023-02-16T21:49:20.201Z,89.20
2023-02-16T21:51:47.997Z,89.20
2023-02-16T21:54:17.112Z,89.20
2023-02-16T21:56:54.140Z,89.30
2023-02-16T21:59:22.694Z,89.30
2023-02-16T22:01:51.488Z,89.40
2023-02-16T22:04:22.682Z,89.40
2023-02-16T22:06:50.649Z,89.50
2023-02-16T22:09:20.820Z,89.50
2023-02-16T22:11:48.858Z,90.10
2023-02-16T22:14:15.894Z,89.60
2023-02-16T22:16:45.773Z,89.70
2023-02-16T22:19:15.350Z,89.80
2023-02-16T22:21:43.640Z,89.80
2023-02-16T22:24:13.569Z,89.80
2023-02-16T22:26:41.052Z,90.00
2023-02-16T22:29:09.176Z,89.90
2023-02-16T22:31:37.088Z,90.00
2023-02-16T22:34:11.531Z,90.00
2023-02-16T22:36:40.459Z,90.00
2023-02-16T22:39:08.118Z,90.00
2023-02-16T22:41:35.356Z,90.10
2023-02-16T22:44:02.546Z,90.00
2023-02-16T22:46:29.718Z,90.10
2023-02-16T22:49:00.361Z,90.10
2023-02-16T22:51:29.222Z,90.10
2023-02-16T22:53:58.375Z,90.10
2023-02-16T22:56:26.989Z,90.10
2023-02-16T22:58:57.346Z,90.10
2023-02-16T23:01:26.590Z,90.10
2023-02-16T23:03:58.900Z,90.10
2023-02-16T23:06:31.697Z,90.10
2023-02-16T23:09:01.353Z,90.10
2023-02-16T23:11:28.493Z,90.10
2023-02-16T23:13:55.499Z,90.00
2023-02-16T23:16:25.052Z,90.00
2023-02-16T23:18:52.202Z,90.10
2023-02-16T23:21:28.543Z,90.00
2023-02-16T23:23:56.057Z,90.10
2023-02-16T23:26:26.060Z,90.00
2023-02-16T23:28:54.608Z,90.00
2023-02-16T23:31:23.054Z,90.10
2023-02-16T23:33:52.262Z,90.10
2023-02-16T23:36:19.481Z,90.10
2023-02-16T23:38:46.180Z,90.10
2023-02-16T23:41:14.605Z,90.10
2023-02-16T23:43:42.122Z,90.10
2023-02-16T23:46:09.788Z,90.10
2023-02-16T23:48:36.953Z,90.10
2023-02-16T23:51:04.121Z,90.10
2023-02-16T23:53:30.807Z,90.10
2023-02-16T23:56:06.218Z,90.10
2023-02-16T23:58:36.652Z,90.10
